CGAS KMCO-KMIA
Flight info
| Callsign | CGAS |
|---|---|
| Flight time | N/A |
| Altitude | 23000 |
| Route | DDANY3 DDANY CSTAL3 |
| Aircraft | C700/M-SBDGHM1RWXY/LB2 |
Departure
| Time | 2026-04-25 01:48 |
|---|---|
| Airport | Orlando International Airport (KMCO) |
Arrival
| Time | N/A |
|---|---|
| Airport | Miami International Airport (KMIA) |
| Time | Latitude | Longitude | Altitude | Speed | Heading |
|---|---|---|---|---|---|
| 2026-04-25 01:13 | 28.43389 | -81.29983 | 95 ft | 0 kts | 303° |
| 2026-04-25 01:44 | 28.43412 | -81.29978 | 95 ft | 6 kts | 52° |
| 2026-04-25 01:44 | 28.43427 | -81.29921 | 95 ft | 9 kts | 73° |
| 2026-04-25 01:44 | 28.43433 | -81.29900 | 95 ft | 0 kts | 73° |
| 2026-04-25 01:45 | 28.43436 | -81.29885 | 95 ft | 9 kts | 73° |
| 2026-04-25 01:45 | 28.43443 | -81.29793 | 98 ft | 13 kts | 94° |
| 2026-04-25 01:45 | 28.43441 | -81.29700 | 99 ft | 9 kts | 90° |
| 2026-04-25 01:45 | 28.43441 | -81.29693 | 99 ft | 0 kts | 90° |
| 2026-04-25 01:46 | 28.43441 | -81.29691 | 99 ft | 2 kts | 90° |
| 2026-04-25 01:47 | 28.43441 | -81.29654 | 100 ft | 11 kts | 90° |
| 2026-04-25 01:47 | 28.43388 | -81.29584 | 102 ft | 11 kts | 182° |
| 2026-04-25 01:47 | 28.43217 | -81.29584 | 102 ft | 54 kts | 179° |
| 2026-04-25 01:47 | 28.42498 | -81.29576 | 95 ft | 149 kts | 179° |
| 2026-04-25 01:48 | 28.41249 | -81.29571 | 508 ft | 204 kts | 179° |
| 2026-04-25 01:48 | 28.39891 | -81.29467 | 2216 ft | 196 kts | 172° |
| 2026-04-25 01:48 | 28.38460 | -81.28824 | 2897 ft | 254 kts | 149° |
| 2026-04-25 01:48 | 28.36932 | -81.27780 | 3030 ft | 249 kts | 152° |
| 2026-04-25 01:49 | 28.35919 | -81.27219 | 3025 ft | 242 kts | 156° |
| 2026-04-25 01:49 | 28.34495 | -81.26167 | 2953 ft | 254 kts | 132° |
| 2026-04-25 01:49 | 28.33623 | -81.23658 | 3580 ft | 262 kts | 101° |
| 2026-04-25 01:49 | 28.33287 | -81.21621 | 5389 ft | 265 kts | 101° |
| 2026-04-25 01:50 | 28.32846 | -81.19569 | 7182 ft | 269 kts | 104° |
| 2026-04-25 01:50 | 28.32355 | -81.17478 | 8711 ft | 282 kts | 104° |
| 2026-04-25 01:50 | 28.31861 | -81.15281 | 10148 ft | 293 kts | 104° |
| 2026-04-25 01:50 | 28.31350 | -81.12939 | 11256 ft | 320 kts | 104° |
| 2026-04-25 01:51 | 28.30986 | -81.11284 | 12080 ft | 329 kts | 105° |
| 2026-04-25 01:51 | 28.30422 | -81.08744 | 13643 ft | 340 kts | 105° |
| 2026-04-25 01:51 | 28.29807 | -81.05993 | 14046 ft | 380 kts | 105° |
| 2026-04-25 01:51 | 28.29140 | -81.02990 | 14051 ft | 402 kts | 105° |
| 2026-04-25 01:52 | 28.28455 | -80.99893 | 14050 ft | 407 kts | 105° |
| 2026-04-25 01:52 | 28.27762 | -80.96772 | 14047 ft | 409 kts | 105° |
| 2026-04-25 01:52 | 28.27062 | -80.93639 | 14048 ft | 410 kts | 105° |
| 2026-04-25 01:52 | 28.26362 | -80.90505 | 14042 ft | 409 kts | 105° |
| 2026-04-25 01:53 | 28.25665 | -80.87384 | 14043 ft | 409 kts | 105° |
| 2026-04-25 01:53 | 28.24967 | -80.84259 | 14037 ft | 408 kts | 105° |
| 2026-04-25 01:53 | 28.24280 | -80.81192 | 14389 ft | 402 kts | 105° |
| 2026-04-25 01:53 | 28.23617 | -80.78229 | 16532 ft | 373 kts | 105° |
| 2026-04-25 01:54 | 28.22992 | -80.75446 | 18618 ft | 365 kts | 105° |
| 2026-04-25 01:54 | 28.22142 | -80.72677 | 19581 ft | 376 kts | 117° |
| 2026-04-25 01:54 | 28.20778 | -80.70145 | 20736 ft | 380 kts | 128° |
| 2026-04-25 01:54 | 28.18944 | -80.67969 | 21761 ft | 385 kts | 141° |
| 2026-04-25 01:55 | 28.16714 | -80.66273 | 22780 ft | 389 kts | 154° |
| 2026-04-25 01:55 | 28.14127 | -80.65114 | 23019 ft | 415 kts | 167° |
| 2026-04-25 01:55 | 28.11224 | -80.64285 | 23055 ft | 446 kts | 168° |
| 2026-04-25 01:55 | 28.08210 | -80.63403 | 23053 ft | 457 kts | 167° |
| 2026-04-25 01:56 | 28.05131 | -80.62455 | 23033 ft | 460 kts | 167° |
| 2026-04-25 01:56 | 28.02040 | -80.61511 | 23024 ft | 460 kts | 167° |
| 2026-04-25 01:56 | 27.98947 | -80.60597 | 23022 ft | 459 kts | 167° |
| 2026-04-25 01:56 | 27.89613 | -80.57804 | 23027 ft | 458 kts | 167° |
| 2026-04-25 01:57 | 27.33368 | -80.37812 | 23014 ft | 456 kts | 161° |
| 2026-04-25 01:57 | 27.17163 | -80.31522 | 23007 ft | 456 kts | 161° |
| 2026-04-25 01:57 | 26.93266 | -80.22145 | 23016 ft | 455 kts | 163° |
| 2026-04-25 01:58 | 26.70249 | -80.13627 | 19008 ft | 414 kts | 165° |
| 2026-04-25 01:58 | 26.49363 | -80.08155 | 14913 ft | 363 kts | 170° |
| 2026-04-25 01:58 | 26.30822 | -80.03557 | 13018 ft | 320 kts | 168° |
| 2026-04-25 01:58 | 26.18454 | -80.03646 | 13023 ft | 304 kts | 201° |
| 2026-04-25 01:59 | 26.16440 | -80.04303 | 13032 ft | 300 kts | 196° |
| 2026-04-25 01:59 | 26.14409 | -80.04743 | 13018 ft | 296 kts | 192° |
| 2026-04-25 01:59 | 26.12380 | -80.05137 | 13018 ft | 297 kts | 193° |
| 2026-04-25 01:59 | 26.10352 | -80.05600 | 13011 ft | 298 kts | 195° |
| 2026-04-25 02:00 | 26.08156 | -80.06126 | 12706 ft | 304 kts | 194° |
| 2026-04-25 02:00 | 26.04130 | -80.07119 | 11965 ft | 297 kts | 196° |
| 2026-04-25 02:00 | 26.00153 | -80.08165 | 11223 ft | 292 kts | 195° |
| 2026-04-25 02:00 | 25.95279 | -80.09427 | 10312 ft | 288 kts | 195° |
| 2026-04-25 02:01 | 25.89070 | -80.14325 | 8851 ft | 278 kts | 241° |
| 2026-04-25 02:01 | 25.87760 | -80.22644 | 7459 ft | 279 kts | 268° |
| 2026-04-25 02:01 | 25.88484 | -80.31041 | 6022 ft | 274 kts | 300° |
| 2026-04-25 02:01 | 25.90616 | -80.35317 | 5240 ft | 275 kts | 297° |
| 2026-04-25 02:02 | 25.91055 | -80.36260 | 5070 ft | 275 kts | 298° |
| 2026-04-25 02:02 | 25.91506 | -80.37196 | 4894 ft | 275 kts | 298° |
| 2026-04-25 02:02 | 25.91958 | -80.38114 | 4724 ft | 274 kts | 299° |
| 2026-04-25 02:02 | 25.92417 | -80.39040 | 4539 ft | 273 kts | 299° |
| 2026-04-25 02:03 | 25.92873 | -80.39964 | 4364 ft | 272 kts | 298° |
| 2026-04-25 02:03 | 25.93283 | -80.40909 | 4187 ft | 271 kts | 292° |
| 2026-04-25 02:03 | 25.93567 | -80.41907 | 4050 ft | 270 kts | 282° |
| 2026-04-25 02:03 | 25.93709 | -80.42923 | 4048 ft | 266 kts | 275° |
| 2026-04-25 02:04 | 25.93736 | -80.43956 | 4046 ft | 269 kts | 269° |
| 2026-04-25 02:04 | 25.93715 | -80.45005 | 4049 ft | 274 kts | 268° |
| 2026-04-25 02:04 | 25.93639 | -80.46043 | 4041 ft | 274 kts | 258° |
| 2026-04-25 02:04 | 25.93327 | -80.47035 | 4030 ft | 272 kts | 241° |
| 2026-04-25 02:05 | 25.92773 | -80.47871 | 4009 ft | 266 kts | 225° |
| 2026-04-25 02:05 | 25.92059 | -80.48512 | 3733 ft | 265 kts | 210° |
| 2026-04-25 02:05 | 25.91211 | -80.48905 | 3375 ft | 265 kts | 193° |
| 2026-04-25 02:05 | 25.90297 | -80.48998 | 3079 ft | 264 kts | 174° |
| 2026-04-25 02:06 | 25.89085 | -80.48549 | 3039 ft | 248 kts | 147° |
| 2026-04-25 02:06 | 25.88295 | -80.47708 | 3036 ft | 246 kts | 124° |
| 2026-04-25 02:06 | 25.87906 | -80.46848 | 3047 ft | 254 kts | 111° |
| 2026-04-25 02:06 | 25.87618 | -80.45922 | 3053 ft | 259 kts | 109° |
| 2026-04-25 02:07 | 25.87329 | -80.44973 | 2964 ft | 260 kts | 110° |
| 2026-04-25 02:07 | 25.86990 | -80.44051 | 2786 ft | 256 kts | 115° |
| 2026-04-25 02:07 | 25.86576 | -80.43185 | 2611 ft | 252 kts | 120° |
| 2026-04-25 02:07 | 25.86129 | -80.42359 | 2437 ft | 247 kts | 121° |
| 2026-04-25 02:08 | 25.85706 | -80.41573 | 2346 ft | 214 kts | 121° |
| 2026-04-25 02:08 | 25.85384 | -80.40957 | 2356 ft | 164 kts | 120° |
| 2026-04-25 02:08 | 25.85122 | -80.40434 | 2153 ft | 146 kts | 119° |
| 2026-04-25 02:08 | 25.84842 | -80.39865 | 1936 ft | 128 kts | 120° |
| 2026-04-25 02:09 | 25.84425 | -80.39058 | 1671 ft | 119 kts | 120° |
| 2026-04-25 02:09 | 25.84012 | -80.38242 | 1614 ft | 127 kts | 120° |
| 2026-04-25 02:09 | 25.83572 | -80.37383 | 1460 ft | 129 kts | 120° |
| 2026-04-25 02:09 | 25.83132 | -80.36518 | 1287 ft | 128 kts | 120° |
| 2026-04-25 02:10 | 25.82693 | -80.35657 | 1116 ft | 128 kts | 120° |
| 2026-04-25 02:10 | 25.82253 | -80.34794 | 953 ft | 129 kts | 120° |
| 2026-04-25 02:10 | 25.81809 | -80.33919 | 785 ft | 130 kts | 119° |
| 2026-04-25 02:10 | 25.81365 | -80.33043 | 617 ft | 130 kts | 118° |
| 2026-04-25 02:11 | 25.80934 | -80.32159 | 429 ft | 131 kts | 119° |
| 2026-04-25 02:11 | 25.80497 | -80.31310 | 284 ft | 124 kts | 118° |
| 2026-04-25 02:11 | 25.80095 | -80.30526 | 125 ft | 112 kts | 119° |
| 2026-04-25 02:11 | 25.79719 | -80.29803 | 32 ft | 104 kts | 120° |
| 2026-04-25 02:12 | 25.79401 | -80.29182 | 13 ft | 75 kts | 121° |
| 2026-04-25 02:12 | 25.79188 | -80.28768 | 12 ft | 51 kts | 118° |